sensor_id;sensor_type;location;lat;lon;timestamp;P1;durP1;ratioP1;P2;durP2;ratioP2
53781;SDS011;39692;53.114;7.060;2023-02-13T00:01:32;19.60;;;7.65;;
53781;SDS011;39692;53.114;7.060;2023-02-13T00:03:59;11.48;;;6.45;;
53781;SDS011;39692;53.114;7.060;2023-02-13T00:06:25;10.52;;;6.32;;
53781;SDS011;39692;53.114;7.060;2023-02-13T00:08:51;11.43;;;6.47;;
53781;SDS011;39692;53.114;7.060;2023-02-13T00:11:18;13.75;;;6.47;;
53781;SDS011;39692;53.114;7.060;2023-02-13T00:13:44;10.95;;;6.07;;
53781;SDS011;39692;53.114;7.060;2023-02-13T00:16:10;9.77;;;6.05;;
53781;SDS011;39692;53.114;7.060;2023-02-13T00:18:36;12.07;;;6.15;;
53781;SDS011;39692;53.114;7.060;2023-02-13T00:21:04;11.35;;;6.25;;
53781;SDS011;39692;53.114;7.060;2023-02-13T00:23:31;13.25;;;6.80;;
53781;SDS011;39692;53.114;7.060;2023-02-13T00:25:57;11.25;;;6.00;;
53781;SDS011;39692;53.114;7.060;2023-02-13T00:28:23;11.70;;;6.35;;
53781;SDS011;39692;53.114;7.060;2023-02-13T00:30:50;11.15;;;6.65;;
53781;SDS011;39692;53.114;7.060;2023-02-13T00:33:16;11.48;;;6.72;;
53781;SDS011;39692;53.114;7.060;2023-02-13T00:35:42;10.68;;;5.97;;
53781;SDS011;39692;53.114;7.060;2023-02-13T00:38:08;10.23;;;5.55;;
53781;SDS011;39692;53.114;7.060;2023-02-13T00:40:34;12.55;;;6.15;;
53781;SDS011;39692;53.114;7.060;2023-02-13T00:43:00;13.27;;;6.65;;
53781;SDS011;39692;53.114;7.060;2023-02-13T00:45:27;15.25;;;7.32;;
53781;SDS011;39692;53.114;7.060;2023-02-13T00:47:53;12.80;;;6.28;;
53781;SDS011;39692;53.114;7.060;2023-02-13T00:50:19;12.00;;;6.47;;
53781;SDS011;39692;53.114;7.060;2023-02-13T00:52:45;12.63;;;6.88;;
53781;SDS011;39692;53.114;7.060;2023-02-13T00:55:11;14.15;;;6.68;;
53781;SDS011;39692;53.114;7.060;2023-02-13T00:57:37;15.23;;;6.65;;
53781;SDS011;39692;53.114;7.060;2023-02-13T01:00:03;14.13;;;8.48;;
53781;SDS011;39692;53.114;7.060;2023-02-13T01:02:29;13.45;;;7.45;;
53781;SDS011;39692;53.114;7.060;2023-02-13T01:04:55;12.88;;;7.57;;
53781;SDS011;39692;53.114;7.060;2023-02-13T01:07:21;12.45;;;6.93;;
53781;SDS011;39692;53.114;7.060;2023-02-13T01:09:47;14.00;;;7.13;;
53781;SDS011;39692;53.114;7.060;2023-02-13T01:12:13;12.88;;;6.88;;
53781;SDS011;39692;53.114;7.060;2023-02-13T01:14:39;12.32;;;7.15;;
53781;SDS011;39692;53.114;7.060;2023-02-13T01:17:06;15.43;;;8.13;;
53781;SDS011;39692;53.114;7.060;2023-02-13T01:19:32;11.02;;;6.03;;
53781;SDS011;39692;53.114;7.060;2023-02-13T01:21:58;13.82;;;7.13;;
53781;SDS011;39692;53.114;7.060;2023-02-13T01:24:24;11.88;;;7.18;;
53781;SDS011;39692;53.114;7.060;2023-02-13T01:26:53;8.82;;;5.38;;
53781;SDS011;39692;53.114;7.060;2023-02-13T01:29:20;13.90;;;6.38;;
53781;SDS011;39692;53.114;7.060;2023-02-13T01:31:46;12.57;;;6.95;;
53781;SDS011;39692;53.114;7.060;2023-02-13T01:34:12;15.27;;;7.45;;
53781;SDS011;39692;53.114;7.060;2023-02-13T01:36:38;10.50;;;6.38;;
53781;SDS011;39692;53.114;7.060;2023-02-13T01:39:04;12.40;;;7.30;;
53781;SDS011;39692;53.114;7.060;2023-02-13T01:41:30;13.82;;;7.78;;
53781;SDS011;39692;53.114;7.060;2023-02-13T01:43:57;13.32;;;7.72;;
53781;SDS011;39692;53.114;7.060;2023-02-13T01:46:30;13.18;;;6.95;;
53781;SDS011;39692;53.114;7.060;2023-02-13T01:49:04;12.37;;;6.63;;
53781;SDS011;39692;53.114;7.060;2023-02-13T01:51:34;17.83;;;8.82;;
53781;SDS011;39692;53.114;7.060;2023-02-13T01:54:09;12.32;;;6.68;;
53781;SDS011;39692;53.114;7.060;2023-02-13T01:59:12;13.75;;;6.20;;
53781;SDS011;39692;53.114;7.060;2023-02-13T02:01:39;16.23;;;6.90;;
53781;SDS011;39692;53.114;7.060;2023-02-13T02:04:07;13.90;;;7.28;;
53781;SDS011;39692;53.114;7.060;2023-02-13T02:06:36;15.25;;;7.38;;
53781;SDS011;39692;53.114;7.060;2023-02-13T02:09:09;17.33;;;7.68;;
53781;SDS011;39692;53.114;7.060;2023-02-13T02:14:03;18.30;;;8.23;;
53781;SDS011;39692;53.114;7.060;2023-02-13T02:16:30;12.68;;;7.50;;
53781;SDS011;39692;53.114;7.060;2023-02-13T02:18:57;13.27;;;7.55;;
53781;SDS011;39692;53.114;7.060;2023-02-13T02:40:25;15.23;;;8.50;;
53781;SDS011;39692;53.114;7.060;2023-02-13T02:43:05;12.70;;;7.18;;
53781;SDS011;39692;53.114;7.060;2023-02-13T02:45:37;13.80;;;7.47;;
53781;SDS011;39692;53.114;7.060;2023-02-13T02:56:01;14.25;;;7.68;;
53781;SDS011;39692;53.114;7.060;2023-02-13T02:58:32;14.75;;;7.60;;
53781;SDS011;39692;53.114;7.060;2023-02-13T03:01:18;12.95;;;6.47;;
53781;SDS011;39692;53.114;7.060;2023-02-13T03:04:05;12.90;;;6.75;;
53781;SDS011;39692;53.114;7.060;2023-02-13T03:06:57;14.35;;;8.30;;
53781;SDS011;39692;53.114;7.060;2023-02-13T03:09:26;12.23;;;6.50;;
53781;SDS011;39692;53.114;7.060;2023-02-13T03:12:21;13.35;;;7.70;;
53781;SDS011;39692;53.114;7.060;2023-02-13T03:15:07;15.30;;;7.47;;
53781;SDS011;39692;53.114;7.060;2023-02-13T03:17:33;12.23;;;7.40;;
53781;SDS011;39692;53.114;7.060;2023-02-13T03:23:13;12.43;;;6.63;;
53781;SDS011;39692;53.114;7.060;2023-02-13T03:31:14;12.05;;;5.80;;
53781;SDS011;39692;53.114;7.060;2023-02-13T03:39:29;13.45;;;6.50;;
53781;SDS011;39692;53.114;7.060;2023-02-13T03:42:20;13.98;;;7.15;;
53781;SDS011;39692;53.114;7.060;2023-02-13T03:44:50;10.60;;;6.68;;
53781;SDS011;39692;53.114;7.060;2023-02-13T03:47:39;13.35;;;7.88;;
53781;SDS011;39692;53.114;7.060;2023-02-13T03:50:06;15.88;;;7.10;;
53781;SDS011;39692;53.114;7.060;2023-02-13T03:55:09;12.15;;;6.82;;
53781;SDS011;39692;53.114;7.060;2023-02-13T03:57:57;12.93;;;7.07;;
53781;SDS011;39692;53.114;7.060;2023-02-13T04:00:43;12.82;;;5.97;;
53781;SDS011;39692;53.114;7.060;2023-02-13T04:05:43;11.10;;;6.25;;
53781;SDS011;39692;53.114;7.060;2023-02-13T04:08:11;17.48;;;6.57;;
53781;SDS011;39692;53.114;7.060;2023-02-13T04:10:39;13.00;;;6.32;;
53781;SDS011;39692;53.114;7.060;2023-02-13T04:13:19;14.18;;;6.25;;
53781;SDS011;39692;53.114;7.060;2023-02-13T04:15:49;14.85;;;6.50;;
53781;SDS011;39692;53.114;7.060;2023-02-13T04:18:18;12.95;;;6.32;;
53781;SDS011;39692;53.114;7.060;2023-02-13T04:20:45;12.18;;;6.30;;
53781;SDS011;39692;53.114;7.060;2023-02-13T04:23:11;13.60;;;5.85;;
53781;SDS011;39692;53.114;7.060;2023-02-13T04:25:38;15.13;;;6.45;;
53781;SDS011;39692;53.114;7.060;2023-02-13T04:28:05;13.10;;;5.72;;
53781;SDS011;39692;53.114;7.060;2023-02-13T04:30:31;13.05;;;6.38;;
53781;SDS011;39692;53.114;7.060;2023-02-13T04:32:57;12.45;;;6.53;;
53781;SDS011;39692;53.114;7.060;2023-02-13T04:35:24;13.30;;;6.00;;
53781;SDS011;39692;53.114;7.060;2023-02-13T04:37:50;12.48;;;6.80;;
53781;SDS011;39692;53.114;7.060;2023-02-13T04:40:16;9.88;;;5.68;;
53781;SDS011;39692;53.114;7.060;2023-02-13T04:42:42;10.95;;;5.38;;
53781;SDS011;39692;53.114;7.060;2023-02-13T04:45:08;12.00;;;5.57;;
53781;SDS011;39692;53.114;7.060;2023-02-13T04:47:35;9.57;;;5.43;;
53781;SDS011;39692;53.114;7.060;2023-02-13T04:50:01;9.30;;;5.15;;
53781;SDS011;39692;53.114;7.060;2023-02-13T04:52:27;10.57;;;5.78;;
53781;SDS011;39692;53.114;7.060;2023-02-13T04:54:53;14.60;;;6.25;;
53781;SDS011;39692;53.114;7.060;2023-02-13T04:57:19;10.32;;;5.72;;
53781;SDS011;39692;53.114;7.060;2023-02-13T04:59:45;12.60;;;6.50;;
53781;SDS011;39692;53.114;7.060;2023-02-13T05:02:11;13.55;;;6.47;;
53781;SDS011;39692;53.114;7.060;2023-02-13T05:04:37;12.13;;;7.07;;
53781;SDS011;39692;53.114;7.060;2023-02-13T05:07:03;13.82;;;6.82;;
53781;SDS011;39692;53.114;7.060;2023-02-13T05:09:29;12.27;;;6.10;;
53781;SDS011;39692;53.114;7.060;2023-02-13T05:11:55;12.15;;;6.00;;
53781;SDS011;39692;53.114;7.060;2023-02-13T05:14:21;10.70;;;5.82;;
53781;SDS011;39692;53.114;7.060;2023-02-13T05:16:47;12.70;;;7.20;;
53781;SDS011;39692;53.114;7.060;2023-02-13T05:19:16;10.95;;;6.57;;
53781;SDS011;39692;53.114;7.060;2023-02-13T05:21:42;10.70;;;6.32;;
53781;SDS011;39692;53.114;7.060;2023-02-13T05:24:27;9.27;;;5.40;;
53781;SDS011;39692;53.114;7.060;2023-02-13T05:26:53;10.93;;;5.40;;
53781;SDS011;39692;53.114;7.060;2023-02-13T05:29:19;10.60;;;6.10;;
53781;SDS011;39692;53.114;7.060;2023-02-13T05:31:53;9.35;;;5.93;;
53781;SDS011;39692;53.114;7.060;2023-02-13T05:34:20;12.65;;;6.45;;
53781;SDS011;39692;53.114;7.060;2023-02-13T05:36:47;12.30;;;5.97;;
53781;SDS011;39692;53.114;7.060;2023-02-13T05:39:13;13.30;;;6.43;;
53781;SDS011;39692;53.114;7.060;2023-02-13T05:41:40;11.07;;;6.40;;
53781;SDS011;39692;53.114;7.060;2023-02-13T05:44:06;9.48;;;5.25;;
53781;SDS011;39692;53.114;7.060;2023-02-13T05:46:32;13.38;;;6.32;;
53781;SDS011;39692;53.114;7.060;2023-02-13T05:48:58;11.75;;;6.10;;
53781;SDS011;39692;53.114;7.060;2023-02-13T05:51:25;9.48;;;5.53;;
53781;SDS011;39692;53.114;7.060;2023-02-13T05:53:51;10.38;;;5.47;;
53781;SDS011;39692;53.114;7.060;2023-02-13T05:56:17;12.27;;;5.82;;
53781;SDS011;39692;53.114;7.060;2023-02-13T05:58:43;13.50;;;6.13;;
53781;SDS011;39692;53.114;7.060;2023-02-13T06:01:09;11.50;;;5.80;;
53781;SDS011;39692;53.114;7.060;2023-02-13T06:03:35;9.15;;;5.32;;
53781;SDS011;39692;53.114;7.060;2023-02-13T06:06:01;11.52;;;6.20;;
53781;SDS011;39692;53.114;7.060;2023-02-13T06:08:27;12.48;;;5.93;;
53781;SDS011;39692;53.114;7.060;2023-02-13T06:10:53;12.35;;;5.43;;
53781;SDS011;39692;53.114;7.060;2023-02-13T06:13:19;9.77;;;5.75;;
53781;SDS011;39692;53.114;7.060;2023-02-13T06:15:45;10.02;;;4.82;;
53781;SDS011;39692;53.114;7.060;2023-02-13T06:18:12;10.60;;;6.18;;
53781;SDS011;39692;53.114;7.060;2023-02-13T06:20:38;15.45;;;6.32;;
53781;SDS011;39692;53.114;7.060;2023-02-13T06:23:04;14.68;;;6.28;;
53781;SDS011;39692;53.114;7.060;2023-02-13T06:25:30;12.32;;;5.50;;
53781;SDS011;39692;53.114;7.060;2023-02-13T06:27:56;10.70;;;5.68;;
53781;SDS011;39692;53.114;7.060;2023-02-13T06:30:21;12.13;;;6.50;;
53781;SDS011;39692;53.114;7.060;2023-02-13T06:32:47;11.07;;;5.68;;
53781;SDS011;39692;53.114;7.060;2023-02-13T06:35:14;13.13;;;6.80;;
53781;SDS011;39692;53.114;7.060;2023-02-13T06:37:40;12.10;;;6.90;;
53781;SDS011;39692;53.114;7.060;2023-02-13T06:40:08;12.00;;;6.00;;
53781;SDS011;39692;53.114;7.060;2023-02-13T06:42:34;12.65;;;6.95;;
53781;SDS011;39692;53.114;7.060;2023-02-13T06:45:00;10.60;;;5.78;;
53781;SDS011;39692;53.114;7.060;2023-02-13T06:47:27;15.88;;;6.90;;
53781;SDS011;39692;53.114;7.060;2023-02-13T06:49:53;9.10;;;4.78;;
53781;SDS011;39692;53.114;7.060;2023-02-13T06:52:19;10.60;;;6.07;;
53781;SDS011;39692;53.114;7.060;2023-02-13T06:54:45;11.60;;;6.18;;
53781;SDS011;39692;53.114;7.060;2023-02-13T06:57:11;12.30;;;6.40;;
53781;SDS011;39692;53.114;7.060;2023-02-13T06:59:37;10.60;;;5.90;;
53781;SDS011;39692;53.114;7.060;2023-02-13T07:02:03;11.90;;;5.65;;
53781;SDS011;39692;53.114;7.060;2023-02-13T07:04:29;13.20;;;7.07;;
53781;SDS011;39692;53.114;7.060;2023-02-13T07:06:55;10.73;;;6.05;;
53781;SDS011;39692;53.114;7.060;2023-02-13T07:09:22;11.27;;;5.85;;
53781;SDS011;39692;53.114;7.060;2023-02-13T07:11:48;10.93;;;5.80;;
53781;SDS011;39692;53.114;7.060;2023-02-13T07:14:14;9.38;;;6.03;;
53781;SDS011;39692;53.114;7.060;2023-02-13T07:16:40;13.02;;;6.43;;
53781;SDS011;39692;53.114;7.060;2023-02-13T07:19:06;11.82;;;6.60;;
53781;SDS011;39692;53.114;7.060;2023-02-13T07:21:32;13.43;;;7.10;;
53781;SDS011;39692;53.114;7.060;2023-02-13T07:23:58;11.18;;;6.63;;
53781;SDS011;39692;53.114;7.060;2023-02-13T07:26:25;13.32;;;5.95;;
53781;SDS011;39692;53.114;7.060;2023-02-13T07:28:51;9.65;;;6.03;;
53781;SDS011;39692;53.114;7.060;2023-02-13T07:31:17;15.23;;;6.18;;
53781;SDS011;39692;53.114;7.060;2023-02-13T07:33:43;11.40;;;6.03;;
53781;SDS011;39692;53.114;7.060;2023-02-13T07:36:13;11.32;;;5.75;;
53781;SDS011;39692;53.114;7.060;2023-02-13T07:38:39;12.43;;;6.70;;
53781;SDS011;39692;53.114;7.060;2023-02-13T07:41:05;13.70;;;7.68;;
53781;SDS011;39692;53.114;7.060;2023-02-13T07:43:31;14.55;;;6.85;;
53781;SDS011;39692;53.114;7.060;2023-02-13T07:45:57;12.93;;;7.40;;
53781;SDS011;39692;53.114;7.060;2023-02-13T07:48:24;10.95;;;6.25;;
53781;SDS011;39692;53.114;7.060;2023-02-13T07:50:51;14.30;;;7.88;;
53781;SDS011;39692;53.114;7.060;2023-02-13T07:53:17;14.98;;;7.75;;
53781;SDS011;39692;53.114;7.060;2023-02-13T07:55:43;12.98;;;5.97;;
53781;SDS011;39692;53.114;7.060;2023-02-13T07:58:09;12.52;;;6.35;;
53781;SDS011;39692;53.114;7.060;2023-02-13T08:00:35;12.43;;;7.18;;
53781;SDS011;39692;53.114;7.060;2023-02-13T08:03:02;12.73;;;6.85;;
53781;SDS011;39692;53.114;7.060;2023-02-13T08:05:28;15.27;;;6.40;;
53781;SDS011;39692;53.114;7.060;2023-02-13T08:07:56;12.23;;;6.18;;
53781;SDS011;39692;53.114;7.060;2023-02-13T08:10:22;12.48;;;6.93;;
53781;SDS011;39692;53.114;7.060;2023-02-13T08:13:06;12.68;;;6.15;;
53781;SDS011;39692;53.114;7.060;2023-02-13T08:15:33;13.20;;;6.18;;
53781;SDS011;39692;53.114;7.060;2023-02-13T08:17:59;10.95;;;6.60;;
53781;SDS011;39692;53.114;7.060;2023-02-13T08:20:25;14.98;;;6.70;;
53781;SDS011;39692;53.114;7.060;2023-02-13T08:22:51;14.48;;;8.07;;
53781;SDS011;39692;53.114;7.060;2023-02-13T08:25:17;13.50;;;7.20;;
53781;SDS011;39692;53.114;7.060;2023-02-13T08:27:43;13.70;;;7.05;;
53781;SDS011;39692;53.114;7.060;2023-02-13T08:30:10;11.63;;;5.97;;
53781;SDS011;39692;53.114;7.060;2023-02-13T08:32:36;10.27;;;6.57;;
53781;SDS011;39692;53.114;7.060;2023-02-13T08:35:03;15.32;;;7.82;;
53781;SDS011;39692;53.114;7.060;2023-02-13T08:37:29;12.40;;;7.43;;
53781;SDS011;39692;53.114;7.060;2023-02-13T08:39:55;14.73;;;7.55;;
53781;SDS011;39692;53.114;7.060;2023-02-13T08:42:21;13.75;;;8.00;;
53781;SDS011;39692;53.114;7.060;2023-02-13T08:44:47;15.05;;;7.97;;
53781;SDS011;39692;53.114;7.060;2023-02-13T08:47:13;18.17;;;8.32;;
53781;SDS011;39692;53.114;7.060;2023-02-13T08:49:39;16.83;;;7.90;;
53781;SDS011;39692;53.114;7.060;2023-02-13T08:52:05;16.17;;;8.60;;
53781;SDS011;39692;53.114;7.060;2023-02-13T08:54:32;16.25;;;8.38;;
53781;SDS011;39692;53.114;7.060;2023-02-13T08:57:00;20.35;;;9.95;;
53781;SDS011;39692;53.114;7.060;2023-02-13T08:59:26;16.42;;;8.18;;
53781;SDS011;39692;53.114;7.060;2023-02-13T09:01:52;17.83;;;9.20;;
53781;SDS011;39692;53.114;7.060;2023-02-13T09:04:18;19.65;;;9.50;;
53781;SDS011;39692;53.114;7.060;2023-02-13T09:06:44;17.40;;;9.63;;
53781;SDS011;39692;53.114;7.060;2023-02-13T09:09:10;13.68;;;8.77;;
53781;SDS011;39692;53.114;7.060;2023-02-13T09:11:36;16.27;;;9.38;;
53781;SDS011;39692;53.114;7.060;2023-02-13T09:14:02;20.23;;;9.18;;
53781;SDS011;39692;53.114;7.060;2023-02-13T09:16:28;18.77;;;9.43;;
53781;SDS011;39692;53.114;7.060;2023-02-13T09:18:54;17.75;;;9.30;;
53781;SDS011;39692;53.114;7.060;2023-02-13T09:21:20;18.50;;;9.13;;
53781;SDS011;39692;53.114;7.060;2023-02-13T09:23:48;19.15;;;9.80;;
53781;SDS011;39692;53.114;7.060;2023-02-13T09:26:19;14.05;;;7.93;;
53781;SDS011;39692;53.114;7.060;2023-02-13T09:28:45;19.42;;;9.20;;
53781;SDS011;39692;53.114;7.060;2023-02-13T09:31:13;17.85;;;9.50;;
53781;SDS011;39692;53.114;7.060;2023-02-13T09:33:40;16.20;;;8.75;;
53781;SDS011;39692;53.114;7.060;2023-02-13T09:36:07;17.20;;;9.05;;
53781;SDS011;39692;53.114;7.060;2023-02-13T09:38:34;18.85;;;9.32;;
53781;SDS011;39692;53.114;7.060;2023-02-13T09:41:07;21.10;;;10.45;;
53781;SDS011;39692;53.114;7.060;2023-02-13T09:43:36;18.92;;;9.55;;
53781;SDS011;39692;53.114;7.060;2023-02-13T09:46:13;18.30;;;10.45;;
53781;SDS011;39692;53.114;7.060;2023-02-13T09:48:40;15.23;;;8.43;;
53781;SDS011;39692;53.114;7.060;2023-02-13T09:51:12;19.58;;;9.65;;
53781;SDS011;39692;53.114;7.060;2023-02-13T09:53:40;21.92;;;10.02;;
53781;SDS011;39692;53.114;7.060;2023-02-13T09:56:17;16.83;;;8.73;;
53781;SDS011;39692;53.114;7.060;2023-02-13T09:58:50;17.17;;;9.70;;
53781;SDS011;39692;53.114;7.060;2023-02-13T10:01:19;16.13;;;8.85;;
53781;SDS011;39692;53.114;7.060;2023-02-13T10:04:22;15.60;;;8.25;;
53781;SDS011;39692;53.114;7.060;2023-02-13T10:06:44;20.10;;;9.65;;
53781;SDS011;39692;53.114;7.060;2023-02-13T10:09:39;16.85;;;8.65;;
53781;SDS011;39692;53.114;7.060;2023-02-13T10:14:37;16.38;;;9.05;;
53781;SDS011;39692;53.114;7.060;2023-02-13T10:17:08;18.55;;;9.88;;
53781;SDS011;39692;53.114;7.060;2023-02-13T10:19:40;19.08;;;9.75;;
53781;SDS011;39692;53.114;7.060;2023-02-13T10:24:40;19.95;;;9.70;;
53781;SDS011;39692;53.114;7.060;2023-02-13T10:27:27;15.73;;;9.35;;
53781;SDS011;39692;53.114;7.060;2023-02-13T10:30:02;18.90;;;8.80;;
53781;SDS011;39692;53.114;7.060;2023-02-13T10:32:37;17.98;;;9.05;;
53781;SDS011;39692;53.114;7.060;2023-02-13T10:35:15;21.08;;;11.10;;
53781;SDS011;39692;53.114;7.060;2023-02-13T10:37:42;19.83;;;10.82;;
53781;SDS011;39692;53.114;7.060;2023-02-13T10:40:09;15.45;;;7.88;;
53781;SDS011;39692;53.114;7.060;2023-02-13T10:58:00;17.90;;;9.13;;
53781;SDS011;39692;53.114;7.060;2023-02-13T11:00:36;16.08;;;9.00;;
53781;SDS011;39692;53.114;7.060;2023-02-13T11:03:03;15.57;;;8.85;;
53781;SDS011;39692;53.114;7.060;2023-02-13T11:05:31;18.70;;;10.30;;
53781;SDS011;39692;53.114;7.060;2023-02-13T11:07:57;20.25;;;10.00;;
53781;SDS011;39692;53.114;7.060;2023-02-13T11:10:26;17.73;;;9.50;;
53781;SDS011;39692;53.114;7.060;2023-02-13T11:12:52;16.27;;;9.63;;
53781;SDS011;39692;53.114;7.060;2023-02-13T11:17:48;18.20;;;10.05;;
53781;SDS011;39692;53.114;7.060;2023-02-13T11:22:53;17.85;;;9.65;;
53781;SDS011;39692;53.114;7.060;2023-02-13T11:27:46;17.00;;;10.07;;
53781;SDS011;39692;53.114;7.060;2023-02-13T11:32:55;19.90;;;9.88;;
53781;SDS011;39692;53.114;7.060;2023-02-13T11:35:30;19.13;;;10.52;;
53781;SDS011;39692;53.114;7.060;2023-02-13T11:40:38;16.60;;;9.80;;
53781;SDS011;39692;53.114;7.060;2023-02-13T11:43:06;19.55;;;10.55;;
53781;SDS011;39692;53.114;7.060;2023-02-13T11:45:33;19.42;;;9.65;;
53781;SDS011;39692;53.114;7.060;2023-02-13T11:47:59;23.35;;;10.05;;
53781;SDS011;39692;53.114;7.060;2023-02-13T11:50:30;22.42;;;11.05;;
53781;SDS011;39692;53.114;7.060;2023-02-13T11:57:58;18.05;;;9.80;;
53781;SDS011;39692;53.114;7.060;2023-02-13T12:02:50;17.45;;;9.48;;
53781;SDS011;39692;53.114;7.060;2023-02-13T12:05:18;20.05;;;9.10;;
53781;SDS011;39692;53.114;7.060;2023-02-13T12:07:44;18.08;;;9.50;;
53781;SDS011;39692;53.114;7.060;2023-02-13T12:12:44;22.85;;;10.10;;
53781;SDS011;39692;53.114;7.060;2023-02-13T12:15:22;18.00;;;9.70;;
53781;SDS011;39692;53.114;7.060;2023-02-13T12:17:52;15.43;;;8.68;;
53781;SDS011;39692;53.114;7.060;2023-02-13T12:20:21;17.27;;;9.35;;
53781;SDS011;39692;53.114;7.060;2023-02-13T12:22:55;19.30;;;10.15;;
53781;SDS011;39692;53.114;7.060;2023-02-13T12:25:33;17.13;;;9.65;;
53781;SDS011;39692;53.114;7.060;2023-02-13T12:41:06;20.60;;;9.45;;
53781;SDS011;39692;53.114;7.060;2023-02-13T12:46:09;19.60;;;9.07;;
53781;SDS011;39692;53.114;7.060;2023-02-13T12:48:42;18.38;;;9.88;;
53781;SDS011;39692;53.114;7.060;2023-02-13T12:53:44;19.98;;;9.95;;
53781;SDS011;39692;53.114;7.060;2023-02-13T12:58:53;20.27;;;10.85;;
53781;SDS011;39692;53.114;7.060;2023-02-13T13:14:11;19.73;;;10.13;;
53781;SDS011;39692;53.114;7.060;2023-02-13T13:21:50;17.52;;;10.88;;
53781;SDS011;39692;53.114;7.060;2023-02-13T13:26:46;18.23;;;10.52;;
53781;SDS011;39692;53.114;7.060;2023-02-13T13:29:25;19.65;;;10.00;;
53781;SDS011;39692;53.114;7.060;2023-02-13T13:31:58;19.52;;;10.20;;
53781;SDS011;39692;53.114;7.060;2023-02-13T13:34:25;19.40;;;10.60;;
53781;SDS011;39692;53.114;7.060;2023-02-13T13:39:30;21.10;;;10.77;;
53781;SDS011;39692;53.114;7.060;2023-02-13T13:49:54;21.23;;;11.30;;
53781;SDS011;39692;53.114;7.060;2023-02-13T13:52:22;22.40;;;11.27;;
53781;SDS011;39692;53.114;7.060;2023-02-13T13:54:49;22.13;;;11.05;;
53781;SDS011;39692;53.114;7.060;2023-02-13T13:57:19;17.67;;;10.73;;
53781;SDS011;39692;53.114;7.060;2023-02-13T14:07:25;21.58;;;11.23;;
53781;SDS011;39692;53.114;7.060;2023-02-13T14:09:51;20.90;;;12.13;;
53781;SDS011;39692;53.114;7.060;2023-02-13T14:14:53;20.70;;;12.05;;
53781;SDS011;39692;53.114;7.060;2023-02-13T14:20:14;18.45;;;10.88;;
53781;SDS011;39692;53.114;7.060;2023-02-13T14:22:41;22.65;;;10.90;;
53781;SDS011;39692;53.114;7.060;2023-02-13T14:25:22;21.08;;;12.05;;
53781;SDS011;39692;53.114;7.060;2023-02-13T14:28:14;21.42;;;11.48;;
53781;SDS011;39692;53.114;7.060;2023-02-13T14:30:37;20.73;;;11.55;;
53781;SDS011;39692;53.114;7.060;2023-02-13T14:33:07;27.05;;;14.45;;
53781;SDS011;39692;53.114;7.060;2023-02-13T14:35:46;19.48;;;11.45;;
53781;SDS011;39692;53.114;7.060;2023-02-13T14:38:24;24.92;;;12.23;;
53781;SDS011;39692;53.114;7.060;2023-02-13T14:40:51;23.15;;;11.40;;
53781;SDS011;39692;53.114;7.060;2023-02-13T14:43:18;24.13;;;11.57;;
53781;SDS011;39692;53.114;7.060;2023-02-13T14:45:50;20.75;;;11.70;;
53781;SDS011;39692;53.114;7.060;2023-02-13T14:48:18;24.45;;;12.00;;
53781;SDS011;39692;53.114;7.060;2023-02-13T14:50:46;21.63;;;11.43;;
53781;SDS011;39692;53.114;7.060;2023-02-13T14:55:46;22.10;;;11.77;;
53781;SDS011;39692;53.114;7.060;2023-02-13T14:58:15;22.33;;;11.70;;
53781;SDS011;39692;53.114;7.060;2023-02-13T15:03:47;22.48;;;12.35;;
53781;SDS011;39692;53.114;7.060;2023-02-13T15:06:24;23.55;;;12.43;;
53781;SDS011;39692;53.114;7.060;2023-02-13T15:08:51;21.63;;;11.63;;
53781;SDS011;39692;53.114;7.060;2023-02-13T15:11:31;21.50;;;12.20;;
53781;SDS011;39692;53.114;7.060;2023-02-13T15:16:50;24.10;;;12.27;;
53781;SDS011;39692;53.114;7.060;2023-02-13T15:19:17;18.98;;;11.38;;
53781;SDS011;39692;53.114;7.060;2023-02-13T15:21:52;18.38;;;11.02;;
53781;SDS011;39692;53.114;7.060;2023-02-13T15:24:18;21.67;;;11.43;;
53781;SDS011;39692;53.114;7.060;2023-02-13T15:26:54;19.92;;;11.43;;
53781;SDS011;39692;53.114;7.060;2023-02-13T15:29:21;23.15;;;11.82;;
53781;SDS011;39692;53.114;7.060;2023-02-13T15:31:47;20.25;;;11.50;;
53781;SDS011;39692;53.114;7.060;2023-02-13T15:34:27;23.20;;;12.50;;
53781;SDS011;39692;53.114;7.060;2023-02-13T15:36:53;24.38;;;11.48;;
53781;SDS011;39692;53.114;7.060;2023-02-13T15:39:24;21.95;;;13.07;;
53781;SDS011;39692;53.114;7.060;2023-02-13T15:41:54;22.35;;;12.40;;
53781;SDS011;39692;53.114;7.060;2023-02-13T15:44:30;19.95;;;11.52;;
53781;SDS011;39692;53.114;7.060;2023-02-13T15:47:00;24.08;;;12.55;;
53781;SDS011;39692;53.114;7.060;2023-02-13T15:49:27;20.13;;;11.57;;
53781;SDS011;39692;53.114;7.060;2023-02-13T15:52:03;19.10;;;11.82;;
53781;SDS011;39692;53.114;7.060;2023-02-13T15:54:30;25.35;;;11.70;;
53781;SDS011;39692;53.114;7.060;2023-02-13T15:56:59;19.65;;;10.95;;
53781;SDS011;39692;53.114;7.060;2023-02-13T15:59:28;24.58;;;13.38;;
53781;SDS011;39692;53.114;7.060;2023-02-13T16:01:56;20.90;;;11.57;;
53781;SDS011;39692;53.114;7.060;2023-02-13T16:04:23;24.63;;;13.13;;
53781;SDS011;39692;53.114;7.060;2023-02-13T16:06:49;22.50;;;12.45;;
53781;SDS011;39692;53.114;7.060;2023-02-13T16:09:33;21.98;;;12.23;;
53781;SDS011;39692;53.114;7.060;2023-02-13T16:12:06;19.42;;;11.15;;
53781;SDS011;39692;53.114;7.060;2023-02-13T16:14:41;23.23;;;12.65;;
53781;SDS011;39692;53.114;7.060;2023-02-13T16:17:16;26.05;;;13.15;;
53781;SDS011;39692;53.114;7.060;2023-02-13T16:22:26;22.42;;;12.13;;
53781;SDS011;39692;53.114;7.060;2023-02-13T16:24:54;23.25;;;12.52;;
53781;SDS011;39692;53.114;7.060;2023-02-13T16:27:22;23.17;;;13.23;;
53781;SDS011;39692;53.114;7.060;2023-02-13T16:29:57;24.85;;;11.80;;
53781;SDS011;39692;53.114;7.060;2023-02-13T16:32:28;23.95;;;14.40;;
53781;SDS011;39692;53.114;7.060;2023-02-13T16:34:55;25.13;;;13.38;;
53781;SDS011;39692;53.114;7.060;2023-02-13T16:37:25;20.52;;;11.20;;
53781;SDS011;39692;53.114;7.060;2023-02-13T16:39:51;21.45;;;11.85;;
53781;SDS011;39692;53.114;7.060;2023-02-13T16:42:18;19.40;;;11.98;;
53781;SDS011;39692;53.114;7.060;2023-02-13T16:44:44;23.30;;;12.10;;
53781;SDS011;39692;53.114;7.060;2023-02-13T16:47:21;21.92;;;10.85;;
53781;SDS011;39692;53.114;7.060;2023-02-13T16:49:52;22.67;;;11.52;;
53781;SDS011;39692;53.114;7.060;2023-02-13T16:52:19;22.02;;;12.63;;
53781;SDS011;39692;53.114;7.060;2023-02-13T16:54:59;22.25;;;11.60;;
53781;SDS011;39692;53.114;7.060;2023-02-13T16:57:31;22.80;;;11.88;;
53781;SDS011;39692;53.114;7.060;2023-02-13T17:02:28;23.48;;;12.10;;
53781;SDS011;39692;53.114;7.060;2023-02-13T17:05:12;22.30;;;12.60;;
53781;SDS011;39692;53.114;7.060;2023-02-13T17:07:46;21.38;;;11.65;;
53781;SDS011;39692;53.114;7.060;2023-02-13T17:12:42;20.42;;;12.45;;
53781;SDS011;39692;53.114;7.060;2023-02-13T17:15:12;23.88;;;11.85;;
53781;SDS011;39692;53.114;7.060;2023-02-13T17:17:38;20.60;;;10.98;;
53781;SDS011;39692;53.114;7.060;2023-02-13T17:20:05;21.17;;;11.20;;
53781;SDS011;39692;53.114;7.060;2023-02-13T17:24:58;21.25;;;11.35;;
53781;SDS011;39692;53.114;7.060;2023-02-13T17:27:24;23.08;;;12.63;;
53781;SDS011;39692;53.114;7.060;2023-02-13T17:29:50;17.20;;;10.85;;
53781;SDS011;39692;53.114;7.060;2023-02-13T17:32:17;21.83;;;11.65;;
53781;SDS011;39692;53.114;7.060;2023-02-13T17:34:44;20.48;;;11.50;;
53781;SDS011;39692;53.114;7.060;2023-02-13T17:37:46;21.13;;;12.02;;
53781;SDS011;39692;53.114;7.060;2023-02-13T17:40:05;23.98;;;12.27;;